KTPA/TPA METAR and TAF weather

Enter ICAO airport designator
Station Type Date Time Source
KTPA METAR 2022/08/12 14:53 UTC NOAA

KTPA 121453Z 15008KT 10SM FEW060 SCT160 BKN220 31/23 A3009 RMK AO2 SLP187 T03060233 51003


Station Type Date Time Source
KTPA Decoded METAR 2022/08/12 14:53 UTC NOAA

TAMPA INTERNATIONAL AIRPORT , FL, United States (KTPA) 27-58N 082-32W 11M
Aug 12, 2022 - 10:53 AM EDT / 2022.08.12 1453 UTC
Wind: from the SSE (150 degrees) at 9 MPH (8 KT):0
Visibility: 10 mile(s):0
Sky conditions: mostly cloudy
Temperature: 87.1 F (30.6 C)
Heat index: 95.4 F (35.2 C):1
Dew Point: 73.9 F (23.3 C)
Relative Humidity: 65%
Pressure (altimeter): 30.09 in. Hg (1018 hPa)
Pressure tendency: 0.01 inches (0.3 hPa) higher than three hours ago
ob: KTPA 121453Z 15008KT 10SM FEW060 SCT160 BKN220 31/23 A3009 RMK AO2 SLP187 T03060233 51003
cycle: 15

Station Type Date Time Source
KTPA TAF 2022/08/12 15:06 UTC NOAA

TAF
AMD KTPA 121504Z 1215/1318 15007KT P6SM FEW030 SCT060 BKN250
FM121800 25008KT P6SM SCT040 BKN250
FM122100 28008KT P6SM VCTS SCT040CB SCT080 BKN250
FM130100 VRB03KT P6SM FEW030 BKN250
FM131400 10006KT P6SM SCT030 BKN250

Example: see airport list